createdAt,value
2023-04-30T00:01:26.721Z,11.30
2023-04-30T00:03:53.506Z,11.30
2023-04-30T00:06:20.657Z,11.30
2023-04-30T00:08:47.643Z,11.30
2023-04-30T00:11:14.417Z,11.30
2023-04-30T00:13:42.896Z,11.40
2023-04-30T00:16:10.820Z,11.40
2023-04-30T00:18:38.331Z,11.40
2023-04-30T00:21:05.198Z,11.30
2023-04-30T00:23:32.024Z,11.40
2023-04-30T00:25:58.720Z,11.40
2023-04-30T00:28:25.546Z,11.30
2023-04-30T00:30:52.617Z,11.30
2023-04-30T00:33:19.888Z,11.40
2023-04-30T00:35:47.046Z,11.40
2023-04-30T00:38:13.749Z,11.30
2023-04-30T00:40:42.023Z,11.30
2023-04-30T00:43:08.919Z,11.10
2023-04-30T00:45:35.809Z,11.10
2023-04-30T00:48:03.248Z,11.20
2023-04-30T00:50:30.223Z,11.20
2023-04-30T00:52:57.399Z,11.20
2023-04-30T00:55:24.143Z,11.10
2023-04-30T00:57:51.731Z,11.20
2023-04-30T01:00:19.598Z,11.20
2023-04-30T01:02:46.458Z,11.20
2023-04-30T01:05:13.192Z,11.10
2023-04-30T01:07:46.241Z,11.00
2023-04-30T01:10:14.441Z,10.90
2023-04-30T01:13:02.117Z,11.00
2023-04-30T01:15:41.081Z,11.10
2023-04-30T01:18:26.264Z,11.00
2023-04-30T01:21:04.141Z,11.00
2023-04-30T01:24:13.732Z,10.90
2023-04-30T01:27:07.024Z,11.00
2023-04-30T01:29:36.436Z,11.00
2023-04-30T01:32:03.693Z,11.00
2023-04-30T01:34:31.760Z,11.00
2023-04-30T01:37:29.112Z,11.10
2023-04-30T01:40:08.020Z,11.10
2023-04-30T01:42:51.976Z,11.00
2023-04-30T01:45:32.919Z,11.10
2023-04-30T01:48:22.821Z,10.80
2023-04-30T01:51:05.798Z,11.00
2023-04-30T01:53:41.195Z,11.00
2023-04-30T01:56:12.578Z,10.90
2023-04-30T01:58:40.835Z,11.00
2023-04-30T02:01:07.791Z,11.00
2023-04-30T02:03:34.867Z,11.00
2023-04-30T02:06:02.470Z,11.00
2023-04-30T02:08:29.258Z,10.90
2023-04-30T02:10:56.115Z,10.90
2023-04-30T02:13:22.932Z,11.00
2023-04-30T02:15:49.688Z,11.00
2023-04-30T02:18:16.574Z,10.90
2023-04-30T02:20:43.742Z,11.00
2023-04-30T02:23:11.819Z,10.90
2023-04-30T02:25:39.380Z,10.80
2023-04-30T02:28:06.585Z,10.90
2023-04-30T02:30:33.296Z,10.90
2023-04-30T02:33:00.413Z,10.90
2023-04-30T02:35:27.346Z,10.90
2023-04-30T02:37:54.340Z,10.80
2023-04-30T02:40:21.044Z,10.70
2023-04-30T02:42:48.438Z,10.70
2023-04-30T02:45:16.345Z,10.70
2023-04-30T02:47:43.273Z,10.70
2023-04-30T02:50:10.717Z,10.80
2023-04-30T02:52:37.484Z,10.80
2023-04-30T02:55:04.370Z,10.80
2023-04-30T02:57:31.042Z,10.80
2023-04-30T02:59:58.025Z,10.60
2023-04-30T03:02:24.972Z,10.70
2023-04-30T03:04:52.054Z,10.70
2023-04-30T03:07:19.052Z,10.70
2023-04-30T03:09:46.688Z,10.70
2023-04-30T03:12:14.644Z,10.70
2023-04-30T03:14:42.708Z,10.70
2023-04-30T03:17:09.631Z,10.80
2023-04-30T03:19:36.618Z,10.80
2023-04-30T03:22:03.456Z,10.80
2023-04-30T03:24:30.771Z,10.70
2023-04-30T03:26:57.535Z,10.70
2023-04-30T03:29:24.356Z,10.60
2023-04-30T03:31:51.692Z,10.70
2023-04-30T03:34:18.587Z,10.70
2023-04-30T03:36:45.457Z,10.70
2023-04-30T03:39:12.171Z,10.70
2023-04-30T03:41:38.895Z,10.80
2023-04-30T03:44:06.694Z,10.80
2023-04-30T03:46:33.466Z,10.80
2023-04-30T03:49:00.492Z,10.80
2023-04-30T03:51:27.468Z,10.70
2023-04-30T03:53:54.317Z,10.80
2023-04-30T03:56:21.474Z,10.70
2023-04-30T03:58:48.388Z,10.70
2023-04-30T04:01:15.239Z,10.70
2023-04-30T04:03:42.028Z,10.70
2023-04-30T04:06:08.921Z,10.70
2023-04-30T04:08:36.663Z,10.60
2023-04-30T04:11:03.665Z,10.60
2023-04-30T04:13:31.106Z,10.60
2023-04-30T04:15:57.997Z,10.60
2023-04-30T04:18:24.722Z,10.60
2023-04-30T04:20:52.513Z,10.60
2023-04-30T04:23:20.311Z,10.60
2023-04-30T04:25:49.556Z,10.50
2023-04-30T04:28:17.163Z,10.50
2023-04-30T04:30:44.418Z,10.50
2023-04-30T04:33:11.717Z,10.60
2023-04-30T04:35:38.448Z,10.60
2023-04-30T04:38:05.503Z,10.40
2023-04-30T04:40:33.082Z,10.40
2023-04-30T04:42:59.854Z,10.40
2023-04-30T04:45:26.760Z,10.40
2023-04-30T04:47:53.767Z,10.50
2023-04-30T04:50:21.011Z,10.40
2023-04-30T04:52:48.071Z,10.40
2023-04-30T04:55:15.618Z,10.40
2023-04-30T04:57:42.531Z,10.50
2023-04-30T05:00:10.378Z,10.50
2023-04-30T05:02:37.172Z,10.50
2023-04-30T05:05:04.208Z,10.50
2023-04-30T05:07:31.130Z,10.70
2023-04-30T05:09:57.878Z,10.70
2023-04-30T05:12:24.668Z,10.70
2023-04-30T05:14:51.403Z,10.80
2023-04-30T05:17:18.222Z,10.80
2023-04-30T05:19:47.517Z,10.90
2023-04-30T05:22:14.550Z,10.90
2023-04-30T05:24:41.638Z,11.00
2023-04-30T05:27:08.936Z,11.00
2023-04-30T05:29:35.793Z,11.00
2023-04-30T05:32:02.596Z,11.00
2023-04-30T05:34:29.386Z,11.00
2023-04-30T05:36:56.349Z,11.10
2023-04-30T05:39:23.402Z,11.20
2023-04-30T05:41:51.631Z,11.20
2023-04-30T05:44:19.831Z,11.20
2023-04-30T05:46:47.304Z,11.20
2023-04-30T05:49:14.174Z,11.30
2023-04-30T05:51:40.909Z,11.30
2023-04-30T05:54:07.701Z,11.20
2023-04-30T05:56:34.454Z,11.30
2023-04-30T05:59:01.172Z,11.20
2023-04-30T06:01:29.347Z,11.30
2023-04-30T06:03:56.136Z,11.30
2023-04-30T06:06:23.193Z,11.30
2023-04-30T06:08:49.971Z,11.30
2023-04-30T06:11:17.033Z,11.30
2023-04-30T06:13:43.796Z,11.40
2023-04-30T06:16:10.595Z,11.40
2023-04-30T06:18:37.455Z,11.40
2023-04-30T06:21:04.210Z,11.50
2023-04-30T06:23:31.807Z,11.50
2023-04-30T06:25:58.563Z,11.60
2023-04-30T06:28:25.439Z,11.70
2023-04-30T06:30:54.020Z,11.60
2023-04-30T06:33:21.237Z,11.70
2023-04-30T06:35:48.064Z,11.70
2023-04-30T06:38:15.040Z,11.80
2023-04-30T06:40:41.919Z,11.80
2023-04-30T06:43:08.682Z,11.90
2023-04-30T06:45:35.610Z,12.00
2023-04-30T06:48:02.373Z,12.00
2023-04-30T06:50:29.106Z,12.10
2023-04-30T06:52:56.098Z,12.10
2023-04-30T06:55:23.132Z,12.20
2023-04-30T06:57:49.881Z,12.30
2023-04-30T07:00:16.828Z,12.40
2023-04-30T07:02:43.796Z,12.40
2023-04-30T07:05:11.571Z,12.50
2023-04-30T07:07:38.337Z,12.60
2023-04-30T07:10:05.852Z,12.60
2023-04-30T07:12:32.619Z,12.60
2023-04-30T07:14:59.343Z,12.70
2023-04-30T07:17:27.603Z,12.80
2023-04-30T07:19:55.052Z,12.90
2023-04-30T07:22:22.034Z,12.90
2023-04-30T07:24:48.766Z,13.00
2023-04-30T07:27:15.716Z,13.10
2023-04-30T07:29:42.427Z,13.10
2023-04-30T07:32:09.189Z,13.10
2023-04-30T07:34:35.894Z,13.10
2023-04-30T07:37:03.216Z,13.20
2023-04-30T07:39:30.951Z,13.40
2023-04-30T07:41:57.736Z,13.40
2023-04-30T07:44:24.485Z,13.50
2023-04-30T07:46:51.861Z,13.50
2023-04-30T07:49:18.566Z,13.50
2023-04-30T07:51:46.202Z,13.50
2023-04-30T07:54:13.021Z,13.70
2023-04-30T07:56:39.807Z,13.70
2023-04-30T07:59:06.944Z,13.80
2023-04-30T08:01:33.735Z,13.90
2023-04-30T08:04:01.459Z,13.80
2023-04-30T08:06:28.986Z,14.00
2023-04-30T08:08:56.070Z,14.00
2023-04-30T08:11:22.954Z,14.10
2023-04-30T08:13:49.742Z,14.20
2023-04-30T08:16:17.108Z,14.40
2023-04-30T08:18:45.095Z,14.40
2023-04-30T08:21:15.449Z,14.50
2023-04-30T08:23:42.242Z,14.80
2023-04-30T08:26:09.039Z,14.70
2023-04-30T08:28:36.265Z,14.80
2023-04-30T08:31:03.368Z,14.90
2023-04-30T08:33:30.138Z,15.10
2023-04-30T08:35:56.876Z,15.00
2023-04-30T08:38:23.555Z,15.10
2023-04-30T08:41:03.775Z,15.30
2023-04-30T08:43:31.004Z,15.50
2023-04-30T08:45:58.687Z,15.30
2023-04-30T08:48:26.585Z,15.30
2023-04-30T08:50:53.429Z,15.40
2023-04-30T08:53:21.880Z,15.50
2023-04-30T08:55:48.719Z,15.60
2023-04-30T08:58:15.684Z,15.60
2023-04-30T09:00:42.603Z,15.70
2023-04-30T09:03:10.093Z,15.80
2023-04-30T09:05:38.405Z,15.80
2023-04-30T09:08:06.556Z,15.90
2023-04-30T09:10:34.672Z,16.10
2023-04-30T09:13:05.337Z,16.20
2023-04-30T09:15:33.193Z,16.50
2023-04-30T09:18:17.605Z,16.60
2023-04-30T09:20:57.722Z,16.40
2023-04-30T09:23:25.509Z,16.60
2023-04-30T09:25:52.263Z,16.90
2023-04-30T09:28:23.605Z,17.00
2023-04-30T09:30:51.100Z,16.90
2023-04-30T09:33:18.309Z,17.00
2023-04-30T09:35:45.552Z,17.10
2023-04-30T09:38:30.325Z,17.20
2023-04-30T09:40:59.565Z,17.40
2023-04-30T09:43:27.404Z,17.30
2023-04-30T09:45:54.186Z,17.40
2023-04-30T09:48:24.833Z,17.50
2023-04-30T09:50:51.938Z,17.70
2023-04-30T09:53:19.543Z,17.80
2023-04-30T09:55:51.096Z,17.80
2023-04-30T09:58:19.139Z,17.90
2023-04-30T10:00:48.338Z,18.00
2023-04-30T10:03:16.773Z,17.90
2023-04-30T10:05:48.707Z,18.10
2023-04-30T10:08:22.159Z,18.00
2023-04-30T10:10:54.344Z,17.90
2023-04-30T10:13:22.136Z,18.00
2023-04-30T10:15:52.809Z,18.00
2023-04-30T10:18:33.365Z,18.20
2023-04-30T10:21:10.031Z,18.10
2023-04-30T10:23:39.886Z,18.20
2023-04-30T10:26:08.426Z,18.50
2023-04-30T10:28:35.140Z,18.50
2023-04-30T10:31:02.168Z,18.60
2023-04-30T10:33:40.740Z,18.20
2023-04-30T10:36:13.360Z,18.30
2023-04-30T10:38:41.018Z,18.20
2023-04-30T10:41:09.692Z,18.80
2023-04-30T10:43:37.174Z,18.90
2023-04-30T10:46:04.705Z,18.60
2023-04-30T10:48:35.401Z,19.00
2023-04-30T10:51:02.432Z,18.80
2023-04-30T10:53:32.537Z,18.90
2023-04-30T10:56:06.433Z,19.10
2023-04-30T10:58:35.559Z,19.10
2023-04-30T11:01:06.318Z,19.20
2023-04-30T11:03:35.556Z,19.40
2023-04-30T11:06:10.745Z,19.50
2023-04-30T11:08:39.428Z,19.40
2023-04-30T11:11:09.448Z,19.70
2023-04-30T11:13:41.109Z,19.90
2023-04-30T11:16:08.389Z,19.80
2023-04-30T11:18:41.023Z,19.50
2023-04-30T11:21:09.860Z,19.70
2023-04-30T11:23:41.525Z,19.80
2023-04-30T11:26:09.358Z,19.70
2023-04-30T11:28:38.324Z,19.60
2023-04-30T11:31:05.857Z,19.70
2023-04-30T11:33:33.938Z,20.00
2023-04-30T11:36:01.921Z,20.00
2023-04-30T11:38:30.026Z,19.80
2023-04-30T11:40:57.907Z,19.80
2023-04-30T11:43:26.378Z,20.10
2023-04-30T11:46:11.223Z,20.20
2023-04-30T11:48:40.135Z,20.20
2023-04-30T11:51:17.226Z,20.10
2023-04-30T11:53:47.453Z,20.30
2023-04-30T11:56:14.701Z,20.50
2023-04-30T11:58:41.747Z,20.40
2023-04-30T12:01:12.241Z,19.80
2023-04-30T12:03:47.404Z,20.10
2023-04-30T12:06:25.688Z,20.50
2023-04-30T12:08:56.601Z,20.80
2023-04-30T12:11:28.218Z,20.70
2023-04-30T12:13:57.597Z,20.40
2023-04-30T12:16:25.750Z,20.00
2023-04-30T12:18:53.133Z,20.60
2023-04-30T12:21:23.075Z,20.60
2023-04-30T12:23:50.064Z,20.70
2023-04-30T12:26:17.848Z,21.00
2023-04-30T12:28:47.731Z,21.00
2023-04-30T12:31:14.546Z,20.90
2023-04-30T12:33:41.520Z,21.20
2023-04-30T12:36:11.376Z,21.40
2023-04-30T12:38:38.190Z,21.40
2023-04-30T12:41:05.366Z,21.40
2023-04-30T12:43:32.147Z,21.20
2023-04-30T12:45:58.902Z,21.10
2023-04-30T12:48:26.135Z,21.50
2023-04-30T12:51:00.072Z,21.10
2023-04-30T12:53:27.882Z,21.40
2023-04-30T12:56:17.698Z,21.50
2023-04-30T12:58:47.576Z,21.60
2023-04-30T13:01:18.202Z,21.50
2023-04-30T13:03:45.293Z,21.20
2023-04-30T13:06:12.566Z,21.30
2023-04-30T13:08:50.241Z,21.10
2023-04-30T13:11:25.984Z,21.50
2023-04-30T13:13:55.150Z,21.60
2023-04-30T13:16:22.758Z,21.60
2023-04-30T13:18:49.753Z,21.10
2023-04-30T13:21:16.608Z,21.10
2023-04-30T13:23:51.950Z,21.60
2023-04-30T13:26:21.315Z,21.70
2023-04-30T13:28:48.321Z,21.80
2023-04-30T13:31:15.111Z,21.60
2023-04-30T13:33:42.223Z,21.90
2023-04-30T13:36:08.988Z,22.00
2023-04-30T13:38:35.758Z,21.80
2023-04-30T13:41:02.570Z,22.10
2023-04-30T13:43:29.366Z,22.10
2023-04-30T13:45:56.769Z,22.10
2023-04-30T13:48:23.797Z,22.00
2023-04-30T13:50:52.350Z,22.10
2023-04-30T13:53:19.105Z,22.00
2023-04-30T13:55:45.830Z,22.00
2023-04-30T13:58:13.087Z,21.80
2023-04-30T14:00:40.026Z,21.70
2023-04-30T14:03:08.453Z,21.70
2023-04-30T14:05:36.339Z,21.20
2023-04-30T14:08:03.354Z,21.30
2023-04-30T14:10:30.404Z,21.30
2023-04-30T14:12:57.280Z,21.80
2023-04-30T14:15:24.551Z,22.00
2023-04-30T14:17:51.738Z,21.50
2023-04-30T14:20:18.778Z,21.30
2023-04-30T14:22:45.894Z,21.50
2023-04-30T14:25:12.733Z,21.80
2023-04-30T14:27:40.270Z,21.90
2023-04-30T14:30:07.939Z,22.00
2023-04-30T14:32:34.894Z,22.40
2023-04-30T14:35:02.596Z,22.30
2023-04-30T14:37:30.297Z,21.20
2023-04-30T14:40:00.306Z,21.00
2023-04-30T14:42:27.062Z,20.80
2023-04-30T14:44:54.148Z,20.80
2023-04-30T14:47:21.470Z,21.10
2023-04-30T14:49:50.258Z,21.40
2023-04-30T14:52:18.276Z,21.50
2023-04-30T14:54:45.577Z,21.60
2023-04-30T14:57:13.888Z,21.10
2023-04-30T14:59:41.677Z,21.10
2023-04-30T15:02:09.093Z,20.90
2023-04-30T15:04:35.863Z,20.90
2023-04-30T15:07:02.674Z,20.70
2023-04-30T15:09:29.500Z,21.20
2023-04-30T15:11:56.303Z,21.20
2023-04-30T15:14:23.301Z,21.00
2023-04-30T15:16:50.234Z,21.20
2023-04-30T15:19:17.023Z,21.40
2023-04-30T15:21:43.754Z,21.40
2023-04-30T15:24:10.818Z,21.00
2023-04-30T15:26:37.832Z,20.90
2023-04-30T15:29:04.526Z,20.80
2023-04-30T15:31:32.777Z,20.80
2023-04-30T15:33:59.640Z,20.50
2023-04-30T15:36:26.724Z,20.30
2023-04-30T15:38:53.438Z,20.40
2023-04-30T15:41:21.628Z,20.70
2023-04-30T15:43:48.460Z,20.80
2023-04-30T15:46:16.700Z,20.80
2023-04-30T15:48:43.612Z,20.50
2023-04-30T15:51:10.916Z,20.20
2023-04-30T15:53:37.712Z,20.10
2023-04-30T15:56:04.703Z,20.10
2023-04-30T15:58:31.612Z,20.00
2023-04-30T16:00:58.348Z,20.20
2023-04-30T16:03:25.263Z,20.40
2023-04-30T16:05:52.484Z,20.10
2023-04-30T16:08:19.359Z,20.20
2023-04-30T16:10:46.089Z,20.40
2023-04-30T16:13:13.657Z,20.40
2023-04-30T16:15:40.754Z,20.30
2023-04-30T16:18:08.078Z,20.40
2023-04-30T16:20:34.854Z,20.50
2023-04-30T16:23:01.679Z,20.70
2023-04-30T16:25:28.596Z,20.50
2023-04-30T16:27:55.349Z,20.40
2023-04-30T16:30:22.297Z,20.40
2023-04-30T16:32:49.145Z,20.20
2023-04-30T16:35:16.101Z,20.00
2023-04-30T16:37:42.800Z,19.80
2023-04-30T16:40:10.801Z,19.80
2023-04-30T16:42:37.635Z,19.80
2023-04-30T16:45:04.726Z,19.70
2023-04-30T16:47:32.080Z,19.80
2023-04-30T16:49:59.007Z,19.70
2023-04-30T16:52:25.913Z,19.50
2023-04-30T16:54:52.807Z,19.60
2023-04-30T16:57:19.658Z,19.60
2023-04-30T16:59:46.746Z,19.50
2023-04-30T17:02:13.534Z,19.40
2023-04-30T17:04:40.263Z,19.40
2023-04-30T17:07:07.386Z,19.30
2023-04-30T17:09:34.340Z,19.40
2023-04-30T17:12:02.181Z,19.40
2023-04-30T17:14:29.005Z,19.30
2023-04-30T17:16:55.834Z,19.00
2023-04-30T17:19:22.736Z,19.10
2023-04-30T17:21:53.259Z,19.10
2023-04-30T17:24:19.955Z,19.00
2023-04-30T17:26:46.870Z,19.00
2023-04-30T17:29:13.687Z,19.00
2023-04-30T17:31:41.182Z,19.00
2023-04-30T17:34:07.960Z,19.00
2023-04-30T17:36:34.852Z,19.00
2023-04-30T17:39:05.577Z,18.90
2023-04-30T17:41:32.913Z,18.80
2023-04-30T17:43:59.819Z,18.70
2023-04-30T17:46:26.566Z,18.60
2023-04-30T17:48:53.259Z,18.50
2023-04-30T17:51:20.119Z,18.50
2023-04-30T17:53:46.851Z,18.50
2023-04-30T17:56:13.586Z,18.50
2023-04-30T17:58:40.554Z,18.40
2023-04-30T18:01:07.696Z,18.30
2023-04-30T18:03:36.252Z,18.30
2023-04-30T18:06:03.801Z,18.10
2023-04-30T18:08:30.897Z,18.10
2023-04-30T18:10:57.743Z,18.00
2023-04-30T18:13:24.538Z,17.80
2023-04-30T18:15:51.500Z,17.90
2023-04-30T18:18:18.823Z,17.70
2023-04-30T18:20:45.895Z,17.70
2023-04-30T18:23:13.789Z,17.70
2023-04-30T18:25:42.372Z,17.60
2023-04-30T18:28:09.329Z,17.40
2023-04-30T18:30:36.833Z,17.30
2023-04-30T18:33:04.901Z,17.10
2023-04-30T18:35:32.633Z,16.90
2023-04-30T18:37:59.922Z,16.80
2023-04-30T18:40:26.669Z,16.60
2023-04-30T18:42:54.452Z,16.50
2023-04-30T18:45:21.684Z,16.20
2023-04-30T18:47:48.516Z,16.10
2023-04-30T18:50:17.783Z,15.80
2023-04-30T18:52:45.202Z,15.80
2023-04-30T18:55:13.875Z,15.50
2023-04-30T18:57:42.458Z,15.40
2023-04-30T19:00:10.516Z,15.30
2023-04-30T19:02:37.503Z,15.10
2023-04-30T19:05:04.929Z,15.00
2023-04-30T19:07:31.839Z,15.00
2023-04-30T19:09:58.924Z,14.80
2023-04-30T19:12:26.059Z,14.80
2023-04-30T19:14:53.003Z,14.60
2023-04-30T19:17:21.885Z,14.50
2023-04-30T19:19:50.035Z,14.40
2023-04-30T19:22:17.361Z,14.40
2023-04-30T19:24:44.203Z,14.30
2023-04-30T19:27:11.178Z,14.10
2023-04-30T19:29:39.417Z,14.00
2023-04-30T19:32:06.563Z,14.10
2023-04-30T19:34:33.410Z,14.00
2023-04-30T19:37:00.568Z,13.80
2023-04-30T19:39:36.096Z,13.80
2023-04-30T19:42:03.680Z,13.70
2023-04-30T19:44:30.834Z,13.60
2023-04-30T19:46:58.253Z,13.50
2023-04-30T19:49:26.496Z,13.30
2023-04-30T19:51:53.847Z,13.20
2023-04-30T19:54:20.826Z,13.20
2023-04-30T19:56:47.905Z,13.20
2023-04-30T19:59:14.637Z,13.20
2023-04-30T20:01:42.009Z,13.20
2023-04-30T20:04:10.301Z,12.90
2023-04-30T20:06:37.165Z,12.90
2023-04-30T20:09:04.181Z,12.80
2023-04-30T20:11:30.968Z,12.70
2023-04-30T20:13:57.730Z,12.70
2023-04-30T20:16:24.472Z,12.60
2023-04-30T20:18:51.250Z,12.60
2023-04-30T20:21:20.561Z,12.50
2023-04-30T20:23:47.547Z,12.50
2023-04-30T20:26:14.292Z,12.40
2023-04-30T20:28:41.059Z,12.40
2023-04-30T20:31:09.685Z,12.30
2023-04-30T20:33:36.589Z,12.40
2023-04-30T20:36:03.599Z,12.30
2023-04-30T20:38:30.348Z,12.30
2023-04-30T20:40:58.494Z,12.10
2023-04-30T20:43:25.618Z,12.10
2023-04-30T20:45:56.211Z,11.90
2023-04-30T20:48:23.236Z,12.10
2023-04-30T20:50:50.597Z,12.00
2023-04-30T20:53:17.668Z,12.00
2023-04-30T20:55:44.484Z,11.90
2023-04-30T20:58:11.768Z,11.90
2023-04-30T21:00:38.582Z,12.00
2023-04-30T21:03:06.205Z,11.90
2023-04-30T21:05:33.322Z,11.80
2023-04-30T21:08:01.682Z,11.90
2023-04-30T21:10:35.337Z,12.00
2023-04-30T21:13:08.793Z,11.80
2023-04-30T21:15:36.609Z,11.70
2023-04-30T21:18:03.650Z,11.90
2023-04-30T21:20:31.481Z,12.00
2023-04-30T21:22:58.575Z,12.20
2023-04-30T21:25:25.592Z,12.10
2023-04-30T21:27:52.351Z,12.20
2023-04-30T21:30:19.350Z,12.20
2023-04-30T21:32:48.787Z,12.20
2023-04-30T21:35:16.066Z,12.40
2023-04-30T21:37:42.839Z,12.60
2023-04-30T21:40:10.185Z,12.60
2023-04-30T21:42:37.234Z,12.60
2023-04-30T21:45:04.812Z,12.50
2023-04-30T21:47:31.695Z,12.40
2023-04-30T21:49:59.150Z,12.50
2023-04-30T21:52:26.621Z,12.50
2023-04-30T21:54:54.079Z,12.50
2023-04-30T21:57:21.440Z,12.50
2023-04-30T21:59:48.217Z,12.40
2023-04-30T22:02:23.725Z,12.40
2023-04-30T22:04:51.289Z,12.30
2023-04-30T22:07:18.376Z,12.30
2023-04-30T22:09:45.320Z,12.30
2023-04-30T22:12:12.102Z,12.30
2023-04-30T22:14:39.120Z,12.20
2023-04-30T22:17:06.101Z,12.30
2023-04-30T22:19:32.778Z,12.20
2023-04-30T22:21:59.663Z,12.10
2023-04-30T22:24:26.328Z,12.20
2023-04-30T22:26:53.135Z,12.10
2023-04-30T22:29:20.368Z,12.20
2023-04-30T22:31:47.518Z,12.20
2023-04-30T22:34:15.544Z,12.20
2023-04-30T22:36:43.535Z,12.20
2023-04-30T22:39:10.447Z,12.30
2023-04-30T22:41:37.311Z,12.10
2023-04-30T22:44:05.425Z,12.20
2023-04-30T22:46:34.036Z,12.20
2023-04-30T22:49:01.085Z,12.10
2023-04-30T22:51:28.074Z,12.10
2023-04-30T22:53:56.335Z,12.20
2023-04-30T22:56:23.364Z,12.30
2023-04-30T22:58:50.439Z,12.30
2023-04-30T23:01:17.561Z,12.20
2023-04-30T23:03:44.354Z,12.00
2023-04-30T23:06:11.729Z,12.10
2023-04-30T23:08:38.582Z,12.10
2023-04-30T23:11:05.713Z,12.00
2023-04-30T23:13:32.630Z,12.10
2023-04-30T23:16:01.250Z,11.90
2023-04-30T23:18:28.059Z,12.00
2023-04-30T23:20:58.763Z,12.00
2023-04-30T23:23:26.812Z,11.90
2023-04-30T23:25:54.910Z,11.90
2023-04-30T23:28:24.288Z,11.80
2023-04-30T23:30:52.312Z,11.80
2023-04-30T23:33:19.759Z,11.80
2023-04-30T23:35:47.233Z,11.70
2023-04-30T23:38:15.101Z,11.50
2023-04-30T23:40:42.673Z,11.50
2023-04-30T23:43:10.854Z,11.70
2023-04-30T23:45:42.323Z,11.40
2023-04-30T23:48:10.409Z,11.30
2023-04-30T23:50:38.199Z,11.10
2023-04-30T23:53:04.999Z,11.20
2023-04-30T23:55:31.720Z,10.90
2023-04-30T23:57:58.508Z,10.80
